![]() |
EMODnet Physics ERDDAP
Easier access to scientific data |
log in|
Brought to you by EMODnet Physics |
| Dataset Title: | NDBC - Collection of dew point temperature (DEWT) TimeSeries - IN SITU MultiPointTimeSeriesObservation
|
| Institution: | NDBC (Dataset ID: TS_DEWT_NDBC) |
| Information: | Summary
| License
| FGDC
| ISO 19115
| Metadata
| Background
| Subset
| Data Access Form
| Make a graph
|
| Name | Last modified | Size | Description | |
|---|---|---|---|---|
| Parent Directory | - | - | ||
| 41013_TS_DEWT_012004.nc | 24-Dec-2024 08:51 | 1626544 | ||
| 41013_TS_DEWT_012005.nc | 24-Dec-2024 08:54 | 1626555 | ||
| 41013_TS_DEWT_012006.nc | 24-Dec-2024 08:55 | 1626615 | ||
| 41013_TS_DEWT_012007.nc | 24-Dec-2024 08:57 | 1477527 | ||
| 41013_TS_DEWT_012008.nc | 24-Dec-2024 08:59 | 1473812 | ||
| 41013_TS_DEWT_012010.nc | 24-Dec-2024 09:07 | 1626544 | ||
| 41013_TS_DEWT_012011.nc | 24-Dec-2024 09:10 | 1626487 | ||
| 41013_TS_DEWT_012012.nc | 24-Dec-2024 09:15 | 1626544 | ||
| 41013_TS_DEWT_012013.nc | 24-Dec-2024 09:19 | 1626838 | ||
| 41013_TS_DEWT_012014.nc | 24-Dec-2024 09:22 | 1159023 | ||
| 41013_TS_DEWT_012015.nc | 24-Dec-2024 09:24 | 1626367 | ||
| 41013_TS_DEWT_012016.nc | 24-Dec-2024 09:27 | 1626587 | ||
| 41013_TS_DEWT_012017.nc | 24-Dec-2024 09:32 | 429426 | ||
| 41013_TS_DEWT_012018.nc | 24-Dec-2024 09:37 | 429527 | ||
| 41013_TS_DEWT_012019.nc | 24-Dec-2024 09:42 | 1156098 | ||
| 41013_TS_DEWT_012020.nc | 24-Dec-2024 09:47 | 1476123 | ||
| 41013_TS_DEWT_012021.nc | 24-Dec-2024 09:52 | 1464133 | ||
| 41013_TS_DEWT_012022.nc | 24-Dec-2024 10:00 | 1473756 | ||
| 41013_TS_DEWT_012023.nc | 24-Dec-2024 10:06 | 1476903 | ||
| 41013_TS_DEWT_012025.nc | 07-Feb-2025 12:12 | 1476964 | ||
| 41013_TS_DEWT_012026.nc | 02-Feb-2026 13:43 | 1476893 | ||
| 41013_TS_DEWT_022004.nc | 24-Dec-2024 08:52 | 1476970 | ||
| 41013_TS_DEWT_022005.nc | 24-Dec-2024 08:54 | 1475150 | ||
| 41013_TS_DEWT_022006.nc | 24-Dec-2024 08:55 | 1469793 | ||
| 41013_TS_DEWT_022008.nc | 24-Dec-2024 08:59 | 1476889 | ||
| 41013_TS_DEWT_022010.nc | 24-Dec-2024 09:07 | 1476812 | ||
| 41013_TS_DEWT_022011.nc | 24-Dec-2024 09:10 | 1476972 | ||
| 41013_TS_DEWT_022012.nc | 24-Dec-2024 09:15 | 1476966 | ||
| 41013_TS_DEWT_022013.nc | 24-Dec-2024 09:19 | 1476768 | ||
| 41013_TS_DEWT_022014.nc | 24-Dec-2024 09:22 | 1476929 | ||
| 41013_TS_DEWT_022015.nc | 24-Dec-2024 09:24 | 1475366 | ||
| 41013_TS_DEWT_022016.nc | 24-Dec-2024 09:27 | 429653 | ||
| 41013_TS_DEWT_022017.nc | 24-Dec-2024 09:32 | 429869 | ||
| 41013_TS_DEWT_022018.nc | 24-Dec-2024 09:37 | 1159252 | ||
| 41013_TS_DEWT_022019.nc | 24-Dec-2024 09:42 | 1476224 | ||
| 41013_TS_DEWT_022020.nc | 24-Dec-2024 09:48 | 1462378 | ||
| 41013_TS_DEWT_022021.nc | 24-Dec-2024 09:53 | 1626221 | ||
| 41013_TS_DEWT_022022.nc | 24-Dec-2024 10:01 | 1626817 | ||
| 41013_TS_DEWT_022023.nc | 24-Dec-2024 10:06 | 1626852 | ||
| 41013_TS_DEWT_022025.nc | 01-Mar-2025 09:17 | 1626355 | ||
| 41013_TS_DEWT_022026.nc | 01-Mar-2026 12:39 | 1626824 | ||
| 41013_TS_DEWT_032004.nc | 24-Dec-2024 08:52 | 1624464 | ||
| 41013_TS_DEWT_032005.nc | 24-Dec-2024 08:54 | 1626733 | ||
| 41013_TS_DEWT_032006.nc | 24-Dec-2024 08:55 | 1626678 | ||
| 41013_TS_DEWT_032010.nc | 24-Dec-2024 09:08 | 1626369 | ||
| 41013_TS_DEWT_032011.nc | 24-Dec-2024 09:10 | 1626820 | ||
| 41013_TS_DEWT_032012.nc | 24-Dec-2024 09:15 | 1626804 | ||
| 41013_TS_DEWT_032013.nc | 24-Dec-2024 09:20 | 1477278 | ||
| 41013_TS_DEWT_032014.nc | 24-Dec-2024 09:22 | 1626613 | ||
| 41013_TS_DEWT_032015.nc | 24-Dec-2024 09:24 | 1626395 | ||
| 41013_TS_DEWT_032016.nc | 24-Dec-2024 09:27 | 427303 | ||
| 41013_TS_DEWT_032017.nc | 24-Dec-2024 09:33 | 429489 | ||
| 41013_TS_DEWT_032018.nc | 24-Dec-2024 09:38 | 1163313 | ||
| 41013_TS_DEWT_032019.nc | 24-Dec-2024 09:43 | 1473462 | ||
| 41013_TS_DEWT_032020.nc | 24-Dec-2024 09:48 | 1472936 | ||
| 41013_TS_DEWT_032021.nc | 24-Dec-2024 09:53 | 1475984 | ||
| 41013_TS_DEWT_032022.nc | 24-Dec-2024 10:01 | 1476597 | ||
| 41013_TS_DEWT_032023.nc | 24-Dec-2024 10:07 | 1473890 | ||
| 41013_TS_DEWT_032025.nc | 02-Apr-2025 07:31 | 1476585 | ||
| 41013_TS_DEWT_032026.nc | 25-Mar-2026 15:01 | 1476831 | ||
| 41013_TS_DEWT_042004.nc | 24-Dec-2024 08:52 | 1476256 | ||
| 41013_TS_DEWT_042006.nc | 24-Dec-2024 08:56 | 1475025 | ||
| 41013_TS_DEWT_042007.nc | 24-Dec-2024 08:57 | 1476904 | ||
| 41013_TS_DEWT_042009.nc | 24-Dec-2024 09:05 | 1473202 | ||
| 41013_TS_DEWT_042010.nc | 24-Dec-2024 09:08 | 1475848 | ||
| 41013_TS_DEWT_042011.nc | 24-Dec-2024 09:11 | 1476900 | ||
| 41013_TS_DEWT_042012.nc | 24-Dec-2024 09:16 | 1476498 | ||
| 41013_TS_DEWT_042013.nc | 24-Dec-2024 09:20 | 1476589 | ||
| 41013_TS_DEWT_042014.nc | 24-Dec-2024 09:23 | 1475926 | ||
| 41013_TS_DEWT_042015.nc | 24-Dec-2024 09:24 | 429821 | ||
| 41013_TS_DEWT_042016.nc | 24-Dec-2024 09:28 | 917940 | ||
| 41013_TS_DEWT_042017.nc | 24-Dec-2024 09:33 | 1459787 | ||
| 41013_TS_DEWT_042018.nc | 24-Dec-2024 09:38 | 1626602 | ||
| 41013_TS_DEWT_042019.nc | 24-Dec-2024 09:43 | 1626207 | ||
| 41013_TS_DEWT_042020.nc | 24-Dec-2024 09:49 | 1625678 | ||
| 41013_TS_DEWT_042021.nc | 24-Dec-2024 09:54 | 1626825 | ||
| 41013_TS_DEWT_042022.nc | 24-Dec-2024 10:02 | 1626549 | ||
| 41013_TS_DEWT_042023.nc | 24-Dec-2024 10:07 | 1625967 | ||
| 41013_TS_DEWT_042025.nc | 01-May-2025 04:47 | 1626592 | ||
| 41013_TS_DEWT_052004.nc | 24-Dec-2024 08:52 | 1477027 | ||
| 41013_TS_DEWT_052006.nc | 24-Dec-2024 08:56 | 1626109 | ||
| 41013_TS_DEWT_052007.nc | 24-Dec-2024 08:57 | 1624495 | ||
| 41013_TS_DEWT_052009.nc | 24-Dec-2024 09:05 | 1625692 | ||
| 41013_TS_DEWT_052010.nc | 24-Dec-2024 09:08 | 1626774 | ||
| 41013_TS_DEWT_052011.nc | 24-Dec-2024 09:11 | 1474329 | ||
| 41013_TS_DEWT_052012.nc | 24-Dec-2024 09:16 | 1625313 | ||
| 41013_TS_DEWT_052013.nc | 24-Dec-2024 09:20 | 1626716 | ||
| 41013_TS_DEWT_052014.nc | 24-Dec-2024 09:23 | 1626460 | ||
| 41013_TS_DEWT_052015.nc | 24-Dec-2024 09:24 | 428886 | ||
| 41013_TS_DEWT_052016.nc | 24-Dec-2024 09:28 | 1474238 | ||
| 41013_TS_DEWT_052017.nc | 24-Dec-2024 09:33 | 1468496 | ||
| 41013_TS_DEWT_052018.nc | 24-Dec-2024 09:39 | 1626403 | ||
| 41013_TS_DEWT_052019.nc | 24-Dec-2024 09:44 | 1626597 | ||
| 41013_TS_DEWT_052020.nc | 24-Dec-2024 09:49 | 1476872 | ||
| 41013_TS_DEWT_052021.nc | 24-Dec-2024 09:54 | 1476725 | ||
| 41013_TS_DEWT_052022.nc | 24-Dec-2024 10:02 | 1626829 | ||
| 41013_TS_DEWT_052023.nc | 24-Dec-2024 10:08 | 1626294 | ||
| 41013_TS_DEWT_052025.nc | 01-Jun-2025 04:59 | 1474233 | ||
| 41013_TS_DEWT_062004.nc | 24-Dec-2024 08:52 | 1476590 | ||
| 41013_TS_DEWT_062006.nc | 24-Dec-2024 08:56 | 1626763 | ||
| 41013_TS_DEWT_062007.nc | 24-Dec-2024 08:58 | 1626779 | ||
| 41013_TS_DEWT_062009.nc | 24-Dec-2024 09:06 | 1477209 | ||
| 41013_TS_DEWT_062010.nc | 24-Dec-2024 09:08 | 1626544 | ||
| 41013_TS_DEWT_062011.nc | 24-Dec-2024 09:11 | 1625127 | ||
| 41013_TS_DEWT_062012.nc | 24-Dec-2024 09:16 | 1626743 | ||
| 41013_TS_DEWT_062013.nc | 24-Dec-2024 09:21 | 1626476 | ||
| 41013_TS_DEWT_062015.nc | 24-Dec-2024 09:24 | 1626180 | ||
| 41013_TS_DEWT_062016.nc | 24-Dec-2024 09:29 | 424134 | ||
| 41013_TS_DEWT_062017.nc | 24-Dec-2024 09:34 | 1473882 | ||
| 41013_TS_DEWT_062018.nc | 24-Dec-2024 09:39 | 1475924 | ||
| 41013_TS_DEWT_062019.nc | 24-Dec-2024 09:44 | 1474101 | ||
| 41013_TS_DEWT_062020.nc | 24-Dec-2024 09:49 | 1474890 | ||
| 41013_TS_DEWT_062021.nc | 24-Dec-2024 09:55 | 1471395 | ||
| 41013_TS_DEWT_062022.nc | 24-Dec-2024 10:02 | 1476954 | ||
| 41013_TS_DEWT_062023.nc | 24-Dec-2024 10:08 | 1476901 | ||
| 41013_TS_DEWT_062025.nc | 01-Jul-2025 05:06 | 1476936 | ||
| 41013_TS_DEWT_072004.nc | 24-Dec-2024 08:52 | 1475044 | ||
| 41013_TS_DEWT_072006.nc | 24-Dec-2024 08:56 | 1476577 | ||
| 41013_TS_DEWT_072007.nc | 24-Dec-2024 08:58 | 1476022 | ||
| 41013_TS_DEWT_072009.nc | 24-Dec-2024 09:06 | 1476868 | ||
| 41013_TS_DEWT_072010.nc | 24-Dec-2024 09:09 | 1476914 | ||
| 41013_TS_DEWT_072011.nc | 24-Dec-2024 09:12 | 1476962 | ||
| 41013_TS_DEWT_072012.nc | 24-Dec-2024 09:17 | 1476634 | ||
| 41013_TS_DEWT_072013.nc | 24-Dec-2024 09:21 | 1476703 | ||
| 41013_TS_DEWT_072015.nc | 24-Dec-2024 09:25 | 1476825 | ||
| 41013_TS_DEWT_072016.nc | 24-Dec-2024 09:29 | 1475951 | ||
| 41013_TS_DEWT_072017.nc | 24-Dec-2024 09:34 | 429762 | ||
| 41013_TS_DEWT_072018.nc | 24-Dec-2024 09:40 | 1475688 | ||
| 41013_TS_DEWT_072019.nc | 24-Dec-2024 09:45 | 1626539 | ||
| 41013_TS_DEWT_072020.nc | 24-Dec-2024 09:50 | 1476065 | ||
| 41013_TS_DEWT_072021.nc | 24-Dec-2024 09:55 | 1475873 | ||
| 41013_TS_DEWT_072022.nc | 24-Dec-2024 10:03 | 1626794 | ||
| 41013_TS_DEWT_072023.nc | 24-Dec-2024 10:09 | 1624278 | ||
| 41013_TS_DEWT_072025.nc | 01-Aug-2025 05:16 | 1626816 | ||
| 41013_TS_DEWT_082004.nc | 24-Dec-2024 08:53 | 1626817 | ||
| 41013_TS_DEWT_082005.nc | 24-Dec-2024 08:54 | 1625842 | ||
| 41013_TS_DEWT_082006.nc | 24-Dec-2024 08:56 | 1626792 | ||
| 41013_TS_DEWT_082007.nc | 24-Dec-2024 08:58 | 1626546 | ||
| 41013_TS_DEWT_082009.nc | 24-Dec-2024 09:06 | 1626412 | ||
| 41013_TS_DEWT_082010.nc | 24-Dec-2024 09:09 | 1626693 | ||
| 41013_TS_DEWT_082011.nc | 24-Dec-2024 09:12 | 1626609 | ||
| 41013_TS_DEWT_082012.nc | 24-Dec-2024 09:17 | 1625977 | ||
| 41013_TS_DEWT_082013.nc | 24-Dec-2024 09:21 | 1624450 | ||
| 41013_TS_DEWT_082015.nc | 24-Dec-2024 09:25 | 1625975 | ||
| 41013_TS_DEWT_082016.nc | 24-Dec-2024 09:30 | 1626344 | ||
| 41013_TS_DEWT_082017.nc | 24-Dec-2024 09:35 | 429425 | ||
| 41013_TS_DEWT_082018.nc | 24-Dec-2024 09:40 | 1474909 | ||
| 41013_TS_DEWT_082019.nc | 24-Dec-2024 09:45 | 1476235 | ||
| 41013_TS_DEWT_082020.nc | 24-Dec-2024 09:50 | 1476309 | ||
| 41013_TS_DEWT_082021.nc | 24-Dec-2024 09:55 | 1473316 | ||
| 41013_TS_DEWT_082022.nc | 24-Dec-2024 10:03 | 1476858 | ||
| 41013_TS_DEWT_082023.nc | 24-Dec-2024 10:09 | 1476966 | ||
| 41013_TS_DEWT_082025.nc | 01-Sep-2025 05:04 | 1476967 | ||
| 41013_TS_DEWT_092004.nc | 24-Dec-2024 08:53 | 1476291 | ||
| 41013_TS_DEWT_092005.nc | 24-Dec-2024 08:54 | 1476733 | ||
| 41013_TS_DEWT_092006.nc | 24-Dec-2024 08:56 | 1462980 | ||
| 41013_TS_DEWT_092007.nc | 24-Dec-2024 08:58 | 1476534 | ||
| 41013_TS_DEWT_092009.nc | 24-Dec-2024 09:06 | 1476883 | ||
| 41013_TS_DEWT_092010.nc | 24-Dec-2024 09:09 | 1476831 | ||
| 41013_TS_DEWT_092011.nc | 24-Dec-2024 09:12 | 1476820 | ||
| 41013_TS_DEWT_092012.nc | 24-Dec-2024 09:18 | 1471496 | ||
| 41013_TS_DEWT_092013.nc | 24-Dec-2024 09:21 | 1476743 | ||
| 41013_TS_DEWT_092015.nc | 24-Dec-2024 09:25 | 1476788 | ||
| 41013_TS_DEWT_092016.nc | 24-Dec-2024 09:30 | 1476065 | ||
| 41013_TS_DEWT_092017.nc | 24-Dec-2024 09:35 | 429865 | ||
| 41013_TS_DEWT_092018.nc | 24-Dec-2024 09:40 | 1624680 | ||
| 41013_TS_DEWT_092019.nc | 24-Dec-2024 09:45 | 1626585 | ||
| 41013_TS_DEWT_092020.nc | 24-Dec-2024 09:51 | 1625814 | ||
| 41013_TS_DEWT_092021.nc | 24-Dec-2024 09:56 | 1470118 | ||
| 41013_TS_DEWT_092022.nc | 24-Dec-2024 10:04 | 1626824 | ||
| 41013_TS_DEWT_092023.nc | 24-Dec-2024 10:10 | 1626849 | ||
| 41013_TS_DEWT_092025.nc | 01-Oct-2025 04:49 | 1626823 | ||
| 41013_TS_DEWT_102004.nc | 24-Dec-2024 08:53 | 1626700 | ||
| 41013_TS_DEWT_102005.nc | 24-Dec-2024 08:54 | 1626707 | ||
| 41013_TS_DEWT_102006.nc | 24-Dec-2024 08:57 | 1472612 | ||
| 41013_TS_DEWT_102007.nc | 24-Dec-2024 08:58 | 1626501 | ||
| 41013_TS_DEWT_102009.nc | 24-Dec-2024 09:07 | 1626723 | ||
| 41013_TS_DEWT_102010.nc | 24-Dec-2024 09:09 | 1624035 | ||
| 41013_TS_DEWT_102011.nc | 24-Dec-2024 09:13 | 1626369 | ||
| 41013_TS_DEWT_102012.nc | 24-Dec-2024 09:18 | 1626689 | ||
| 41013_TS_DEWT_102013.nc | 24-Dec-2024 09:22 | 1625638 | ||
| 41013_TS_DEWT_102014.nc | 24-Dec-2024 09:23 | 1473930 | ||
| 41013_TS_DEWT_102015.nc | 24-Dec-2024 09:25 | 1625423 | ||
| 41013_TS_DEWT_102016.nc | 24-Dec-2024 09:30 | 449978 | ||
| 41013_TS_DEWT_102017.nc | 24-Dec-2024 09:36 | 450662 | ||
| 41013_TS_DEWT_102018.nc | 24-Dec-2024 09:41 | 449114 | ||
| 41013_TS_DEWT_102019.nc | 24-Dec-2024 09:46 | 450997 | ||
| 41013_TS_DEWT_102020.nc | 24-Dec-2024 09:51 | 447431 | ||
| 41013_TS_DEWT_102021.nc | 24-Dec-2024 09:57 | 439596 | ||
| 41013_TS_DEWT_102022.nc | 24-Dec-2024 10:04 | 448889 | ||
| 41013_TS_DEWT_102023.nc | 24-Dec-2024 10:10 | 447625 | ||
| 41013_TS_DEWT_102024.nc | 12-Jan-2025 20:58 | 447717 | ||
| 41013_TS_DEWT_102025.nc | 01-Nov-2025 07:56 | 448520 | ||
| 41013_TS_DEWT_112003.nc | 24-Dec-2024 08:51 | 451025 | ||
| 41013_TS_DEWT_112004.nc | 24-Dec-2024 08:53 | 449926 | ||
| 41013_TS_DEWT_112005.nc | 24-Dec-2024 08:55 | 450222 | ||
| 41013_TS_DEWT_112006.nc | 24-Dec-2024 08:57 | 451344 | ||
| 41013_TS_DEWT_112007.nc | 24-Dec-2024 08:58 | 438932 | ||
| 41013_TS_DEWT_112009.nc | 24-Dec-2024 09:07 | 449925 | ||
| 41013_TS_DEWT_112010.nc | 24-Dec-2024 09:10 | 1748374 | ||
| 41013_TS_DEWT_112011.nc | 24-Dec-2024 09:13 | 449538 | ||
| 41013_TS_DEWT_112012.nc | 24-Dec-2024 09:18 | 449000 | ||
| 41013_TS_DEWT_112013.nc | 24-Dec-2024 09:22 | 429941 | ||
| 41013_TS_DEWT_112014.nc | 24-Dec-2024 09:23 | 434639 | ||
| 41013_TS_DEWT_112015.nc | 24-Dec-2024 09:26 | 443631 | ||
| 41013_TS_DEWT_112016.nc | 24-Dec-2024 09:31 | 449498 | ||
| 41013_TS_DEWT_112017.nc | 24-Dec-2024 09:36 | 443278 | ||
| 41013_TS_DEWT_112018.nc | 24-Dec-2024 09:41 | 450124 | ||
| 41013_TS_DEWT_112019.nc | 24-Dec-2024 09:46 | 450408 | ||
| 41013_TS_DEWT_112020.nc | 24-Dec-2024 09:51 | 447950 | ||
| 41013_TS_DEWT_112021.nc | 24-Dec-2024 09:58 | 450623 | ||
| 41013_TS_DEWT_112022.nc | 24-Dec-2024 10:05 | 449495 | ||
| 41013_TS_DEWT_112023.nc | 24-Dec-2024 10:11 | 448552 | ||
| 41013_TS_DEWT_112024.nc | 17-Jan-2025 15:15 | 448942 | ||
| 41013_TS_DEWT_112025.nc | 01-Dec-2025 09:57 | 450639 | ||
| 41013_TS_DEWT_122003.nc | 24-Dec-2024 08:51 | 448739 | ||
| 41013_TS_DEWT_122004.nc | 24-Dec-2024 08:53 | 449377 | ||
| 41013_TS_DEWT_122005.nc | 24-Dec-2024 08:55 | 441630 | ||
| 41013_TS_DEWT_122006.nc | 24-Dec-2024 08:57 | 431713 | ||
| 41013_TS_DEWT_122007.nc | 24-Dec-2024 08:59 | 448218 | ||
| 41013_TS_DEWT_122008.nc | 24-Dec-2024 09:05 | 449255 | ||
| 41013_TS_DEWT_122009.nc | 24-Dec-2024 09:07 | 448402 | ||
| 41013_TS_DEWT_122010.nc | 24-Dec-2024 09:10 | 447316 | ||
| 41013_TS_DEWT_122011.nc | 24-Dec-2024 09:14 | 449031 | ||
| 41013_TS_DEWT_122012.nc | 24-Dec-2024 09:19 | 449164 | ||
| 41013_TS_DEWT_122013.nc | 24-Dec-2024 09:22 | 438031 | ||
| 41013_TS_DEWT_122014.nc | 24-Dec-2024 09:23 | 431365 | ||
| 41013_TS_DEWT_122015.nc | 24-Dec-2024 09:26 | 449698 | ||
| 41013_TS_DEWT_122016.nc | 24-Dec-2024 09:31 | 450076 | ||
| 41013_TS_DEWT_122017.nc | 24-Dec-2024 09:36 | 441062 | ||
| 41013_TS_DEWT_122018.nc | 24-Dec-2024 09:42 | 448872 | ||
| 41013_TS_DEWT_122019.nc | 24-Dec-2024 09:47 | 450035 | ||
| 41013_TS_DEWT_122020.nc | 24-Dec-2024 09:52 | 449036 | ||
| 41013_TS_DEWT_122021.nc | 24-Dec-2024 10:00 | 442403 | ||
| 41013_TS_DEWT_122022.nc | 24-Dec-2024 10:05 | 430649 | ||
| 41013_TS_DEWT_122023.nc | 24-Dec-2024 10:11 | 450364 | ||
| 41013_TS_DEWT_122024.nc | 22-Jan-2025 16:46 | 449448 | ||
| 41013_TS_DEWT_122025.nc | 01-Jan-2026 09:36 | 450202 | ||